Time;durP1;ratioP1;P1;durP2;ratioP2;P2;SDS_P1;SDS_P2;PMS_P1;PMS_P2;Temp;Humidity;BMP_temperature;BMP_pressure;BME280_temperature;BME280_humidity;BME280_pressure;Samples;Min_cycle;Max_cycle;Signal;HPM_P1;HPM_P2
2023/02/16 00:00:57;;;;;;;65.40;31.05;;;;;;;3.09;52.88;102170.28;4954644;28;20242;-73
2023/02/16 00:03:35;;;;;;;63.90;28.10;;;;;;;3.31;51.96;102160.22;4949424;28;20035;-74
2023/02/16 00:06:00;;;;;;;58.35;28.88;;;;;;;3.21;52.06;102166.09;4942963;28;20035;-72
2023/02/16 00:08:26;;;;;;;61.60;26.58;;;;;;;3.05;52.44;102172.81;4932263;28;20058;-72
2023/02/16 00:13:53;;;;;;;59.78;27.65;;;;;;;3.07;52.26;102161.66;4936524;28;20049;-76
2023/02/16 00:16:23;;;;;;;63.83;25.42;;;;;;;3.10;51.94;102141.00;4940118;28;20500;-77
2023/02/16 00:18:50;;;;;;;65.45;27.00;;;;;;;2.81;52.73;102157.88;4941910;28;20049;-69
2023/02/16 00:21:16;;;;;;;62.17;28.05;;;;;;;2.88;53.03;102160.53;4941104;28;20039;-71
2023/02/16 00:23:47;;;;;;;53.15;25.52;;;;;;;2.70;53.28;102161.16;4935633;28;20039;-71
2023/02/16 00:26:29;;;;;;;58.35;26.10;;;;;;;2.61;53.28;102161.03;4937381;28;20046;-73
2023/02/16 00:29:07;;;;;;;57.25;27.88;;;;;;;2.92;52.38;102159.72;4941749;28;20429;-77
2023/02/16 00:31:33;;;;;;;56.20;25.63;;;;;;;3.11;51.78;102168.59;4942227;28;20657;-71
2023/02/16 00:34:23;;;;;;;62.13;27.90;;;;;;;2.94;52.15;102157.19;4942780;28;20096;-74
2023/02/16 00:36:51;;;;;;;57.95;26.75;;;;;;;2.68;53.11;102152.53;4940228;28;20035;-72
2023/02/16 00:39:17;;;;;;;62.67;28.58;;;;;;;2.89;52.51;102156.22;4940071;28;20075;-71
2023/02/16 00:41:50;;;;;;;61.17;29.40;;;;;;;2.61;53.14;102163.63;4941775;28;20027;-71
2023/02/16 00:44:19;;;;;;;55.85;26.33;;;;;;;2.63;53.22;102164.53;4928113;28;20055;-72
2023/02/16 00:46:50;;;;;;;65.27;28.97;;;;;;;2.78;52.77;102158.69;4923192;28;20047;-72
2023/02/16 00:49:21;;;;;;;59.05;28.17;;;;;;;2.50;53.29;102167.78;4913989;28;20044;-72
2023/02/16 00:51:48;;;;;;;58.20;26.77;;;;;;;2.86;52.55;102169.13;4933140;28;20138;-75
2023/02/16 00:54:16;;;;;;;59.55;26.98;;;;;;;2.89;51.94;102161.41;4939504;28;20039;-72
2023/02/16 00:56:45;;;;;;;66.47;28.13;;;;;;;2.85;52.27;102157.06;4915117;28;20038;-72
2023/02/16 00:59:21;;;;;;;54.25;25.20;;;;;;;3.00;51.69;102164.13;4927618;28;20035;-72
2023/02/16 01:01:49;;;;;;;60.05;26.65;;;;;;;2.71;52.75;102168.09;4932522;28;20121;-74
2023/02/16 01:04:23;;;;;;;74.95;29.60;;;;;;;2.59;52.72;102155.00;4934003;28;20046;-72
2023/02/16 01:12:21;;;;;;;68.13;27.50;;;;;;;2.81;52.47;102155.28;4936772;28;20086;-72
2023/02/16 01:14:50;;;;;;;61.95;27.20;;;;;;;2.61;52.78;102150.72;4928085;28;20043;-71
2023/02/16 01:17:16;;;;;;;66.85;29.58;;;;;;;2.68;52.64;102146.50;4935686;28;20054;-72
2023/02/16 01:19:41;;;;;;;62.17;27.95;;;;;;;2.32;53.12;102148.59;4947081;28;20046;-72
2023/02/16 01:22:11;;;;;;;57.50;27.02;;;;;;;1.79;55.08;102143.44;4935804;28;20055;-71
2023/02/16 01:24:42;;;;;;;66.88;29.23;;;;;;;2.47;52.87;102142.78;4938778;28;20054;-71
2023/02/16 01:27:12;;;;;;;58.75;27.27;;;;;;;2.42;53.02;102143.56;4921289;28;20050;-71
2023/02/16 01:29:38;;;;;;;68.00;26.75;;;;;;;2.75;51.90;102151.75;4933902;28;20380;-71
2023/02/16 01:32:05;;;;;;;72.80;28.17;;;;;;;2.66;52.45;102149.06;4936731;28;20659;-71
2023/02/16 01:34:37;;;;;;;62.33;29.63;;;;;;;2.60;52.64;102146.41;4930218;28;20070;-71
2023/02/16 01:37:05;;;;;;;56.28;25.95;;;;;;;2.85;51.83;102144.16;4949014;28;20297;-71
2023/02/16 01:39:33;;;;;;;57.08;26.13;;;;;;;2.55;52.09;102145.47;4933953;28;20396;-71
2023/02/16 01:41:58;;;;;;;58.28;26.25;;;;;;;2.56;52.26;102142.06;4935530;28;20042;-71
2023/02/16 01:44:37;;;;;;;64.05;27.23;;;;;;;2.52;52.11;102129.94;4935707;28;20031;-71
2023/02/16 01:47:28;;;;;;;64.88;28.63;;;;;;;2.44;52.86;102141.88;4940526;28;20776;-74
2023/02/16 01:49:54;;;;;;;62.97;27.50;;;;;;;2.73;51.83;102143.16;4936856;28;20425;-75
2023/02/16 01:52:34;;;;;;;61.58;27.70;;;;;;;2.71;51.62;102139.69;4923062;28;20042;-72
2023/02/16 01:55:19;;;;;;;51.38;26.23;;;;;;;2.70;51.86;102143.09;4922780;28;20066;-74
2023/02/16 01:58:22;;;;;;;65.32;28.77;;;;;;;2.49;52.23;102137.66;4934734;28;20043;-74
2023/02/16 02:00:50;;;;;;;61.17;29.38;;;;;;;2.74;51.24;102136.28;4931456;28;20166;-75
2023/02/16 02:06:20;;;;;;;56.35;26.35;;;;;;;2.51;52.02;102131.66;4961856;28;20102;-71
2023/02/16 02:09:14;;;;;;;55.22;26.08;;;;;;;2.67;51.50;102125.00;4961888;28;20109;-70
2023/02/16 02:11:59;;;;;;;59.17;29.23;;;;;;;2.50;51.74;102121.31;4945386;28;20129;-71
2023/02/16 02:14:31;;;;;;;66.93;28.77;;;;;;;2.37;52.38;102116.81;4969629;28;20038;-70
2023/02/16 02:17:00;;;;;;;55.08;28.10;;;;;;;2.48;52.41;102108.38;4961242;28;20034;-70
2023/02/16 02:19:37;;;;;;;65.22;28.05;;;;;;;2.17;53.18;102112.25;4946708;28;20038;-70
2023/02/16 02:25:46;;;;;;;63.97;30.40;;;;;;;1.86;53.77;102103.16;4955228;28;20054;-70
2023/02/16 02:28:23;;;;;;;63.63;28.83;;;;;;;2.14;53.12;102101.88;4955336;28;20538;-70
2023/02/16 02:31:01;;;;;;;57.53;27.40;;;;;;;2.10;53.13;102100.09;4961200;28;20074;-72
2023/02/16 02:33:36;;;;;;;59.63;27.35;;;;;;;1.96;53.37;102096.47;4943086;28;20397;-68
2023/02/16 02:36:32;;;;;;;61.60;28.80;;;;;;;2.31;52.47;102090.09;4959181;28;20038;-73
2023/02/16 02:39:18;;;;;;;57.67;27.63;;;;;;;2.17;53.11;102078.69;4964244;28;20545;-72
2023/02/16 02:42:03;;;;;;;62.50;27.45;;;;;;;2.25;52.82;102090.00;4969176;28;20026;-73
2023/02/16 02:44:41;;;;;;;65.80;27.10;;;;;;;2.32;52.56;102089.25;4937520;28;20038;-71
2023/02/16 02:47:17;;;;;;;65.07;29.08;;;;;;;2.35;52.42;102078.09;4939819;28;20061;-72
2023/02/16 02:49:53;;;;;;;64.63;29.00;;;;;;;2.52;51.76;102078.31;4950187;28;20099;-72
2023/02/16 02:52:21;;;;;;;53.30;25.65;;;;;;;2.38;52.48;102078.16;4959770;28;20034;-72
2023/02/16 03:00:50;;;;;;;59.15;26.30;;;;;;;2.54;51.09;102066.31;4970243;28;20039;-71
2023/02/16 03:03:31;;;;;;;61.13;27.45;;;;;;;2.31;52.38;102066.88;4962959;28;20462;-72
2023/02/16 03:05:59;;;;;;;66.20;26.83;;;;;;;2.25;52.45;102064.22;4956605;28;20035;-72
2023/02/16 03:08:31;;;;;;;64.05;29.13;;;;;;;2.21;52.72;102067.59;4959641;28;20044;-72
2023/02/16 03:13:54;;;;;;;68.55;28.88;;;;;;;1.82;53.63;102068.75;4957442;28;20133;-71
2023/02/16 03:16:30;;;;;;;62.80;28.08;;;;;;;2.04;53.18;102075.09;4957068;28;20034;-72
2023/02/16 03:30:23;;;;;;;62.67;29.80;;;;;;;1.94;53.63;102063.75;4975836;28;20083;-72
2023/02/16 03:32:54;;;;;;;65.18;29.60;;;;;;;2.12;52.99;102067.47;4959925;28;20618;-71
2023/02/16 03:35:22;;;;;;;59.10;28.02;;;;;;;1.90;53.71;102059.41;4946199;28;20039;-71
2023/02/16 03:37:50;;;;;;;67.15;28.40;;;;;;;2.21;52.75;102070.16;4952879;28;20094;-72
2023/02/16 03:40:28;;;;;;;61.47;28.00;;;;;;;2.04;53.01;102074.22;4956431;28;20798;-71
2023/02/16 03:43:01;;;;;;;66.38;29.15;;;;;;;1.64;54.29;102071.91;4957174;28;20034;-71
2023/02/16 03:45:33;;;;;;;60.40;30.00;;;;;;;2.07;52.86;102082.88;4960014;28;20500;-70
2023/02/16 03:48:05;;;;;;;59.65;27.45;;;;;;;1.84;54.28;102079.97;4959830;28;20144;-71
2023/02/16 03:50:32;;;;;;;58.38;26.90;;;;;;;1.68;54.13;102075.38;4957404;28;20050;-72
2023/02/16 03:53:07;;;;;;;63.65;28.85;;;;;;;1.98;53.82;102076.72;4958356;28;20046;-72
2023/02/16 03:55:40;;;;;;;68.53;29.25;;;;;;;2.26;52.72;102075.38;4959978;28;20049;-71
2023/02/16 03:58:15;;;;;;;63.47;30.38;;;;;;;1.77;54.25;102079.81;4941602;28;20026;-71
2023/02/16 04:00:43;;;;;;;56.47;26.48;;;;;;;1.84;54.41;102077.38;4955058;28;20077;-76
2023/02/16 04:03:09;;;;;;;70.00;30.27;;;;;;;1.64;54.36;102078.75;4957845;28;20045;-75
2023/02/16 04:05:49;;;;;;;58.30;27.48;;;;;;;2.19;52.64;102071.84;4965776;28;20042;-76
2023/02/16 04:08:17;;;;;;;64.03;28.02;;;;;;;1.62;54.38;102070.16;4975421;28;20283;-72
2023/02/16 04:10:58;;;;;;;61.05;27.92;;;;;;;1.85;54.09;102063.63;4953049;28;20082;-71
2023/02/16 04:13:25;;;;;;;62.95;28.45;;;;;;;1.93;53.93;102061.19;4957739;28;20041;-71
2023/02/16 04:15:51;;;;;;;58.63;29.35;;;;;;;1.90;53.99;102061.13;4954598;28;20042;-70
2023/02/16 04:18:19;;;;;;;62.60;29.05;;;;;;;2.12;53.52;102052.00;4957296;28;20034;-69
2023/02/16 04:20:44;;;;;;;60.05;27.58;;;;;;;2.21;53.14;102051.25;4954859;28;20636;-70
2023/02/16 04:23:14;;;;;;;57.22;26.98;;;;;;;2.30;53.33;102051.38;4960219;28;20787;-78
2023/02/16 04:25:39;;;;;;;59.80;28.50;;;;;;;2.45;52.60;102051.56;4950630;28;20345;-78
2023/02/16 04:28:09;;;;;;;58.33;27.05;;;;;;;2.24;53.30;102047.00;4963862;28;20127;-68
2023/02/16 04:30:35;;;;;;;62.70;29.67;;;;;;;2.13;54.13;102048.53;4940037;28;20054;-70
2023/02/16 04:33:06;;;;;;;61.78;29.67;;;;;;;2.67;52.60;102044.97;4961979;28;20038;-70
2023/02/16 04:35:32;;;;;;;60.60;29.13;;;;;;;2.59;53.01;102038.84;4955503;28;20583;-72
2023/02/16 04:37:59;;;;;;;55.38;26.45;;;;;;;2.54;53.12;102043.09;4959613;28;20054;-72
2023/02/16 04:40:25;;;;;;;63.97;29.40;;;;;;;2.66;52.84;102039.78;4957270;28;20130;-70
2023/02/16 04:42:50;;;;;;;60.35;27.50;;;;;;;2.83;51.90;102033.09;4955993;28;20034;-70
2023/02/16 04:45:16;;;;;;;58.60;27.73;;;;;;;2.26;53.33;102042.72;4958580;28;20057;-70
2023/02/16 04:47:41;;;;;;;60.60;29.33;;;;;;;2.00;54.34;102046.63;4956468;28;20608;-69
2023/02/16 04:50:08;;;;;;;59.88;26.77;;;;;;;2.62;52.32;102049.19;4965859;28;20046;-70
2023/02/16 04:52:35;;;;;;;61.95;28.48;;;;;;;2.69;52.48;102035.53;4970995;28;20035;-70
2023/02/16 04:55:01;;;;;;;56.80;27.70;;;;;;;2.99;51.93;102044.44;4950880;28;20045;-69
2023/02/16 04:57:26;;;;;;;61.38;28.80;;;;;;;2.24;53.70;102039.28;4956451;28;20030;-69
2023/02/16 04:59:52;;;;;;;62.00;27.65;;;;;;;2.68;52.58;102032.91;4958295;28;20066;-69
2023/02/16 05:02:17;;;;;;;66.65;29.80;;;;;;;2.47;53.16;102023.22;4961386;28;20038;-69
2023/02/16 05:04:45;;;;;;;64.38;28.88;;;;;;;2.39;53.62;102036.00;4957163;28;20035;-68
2023/02/16 05:07:10;;;;;;;56.42;26.65;;;;;;;2.92;51.95;102032.31;4958990;28;20034;-70
2023/02/16 05:09:36;;;;;;;56.50;27.08;;;;;;;2.53;52.83;102033.59;4957065;28;20468;-70
2023/02/16 05:14:46;;;;;;;65.90;29.40;;;;;;;2.84;52.14;102026.22;4956734;28;20056;-70
2023/02/16 05:17:17;;;;;;;53.95;26.08;;;;;;;2.66;53.01;102035.47;4940700;28;20038;-70
2023/02/16 05:19:48;;;;;;;62.80;21.90;;;;;;;2.83;52.50;102042.56;4955128;28;20141;-71
2023/02/16 05:22:14;;;;;;;45.42;20.73;;;;;;;2.42;53.29;102040.34;4958318;28;20048;-71
2023/02/16 05:24:41;;;;;;;53.97;27.27;;;;;;;2.86;52.51;102027.09;4959538;28;20034;-71
2023/02/16 05:27:09;;;;;;;66.50;28.85;;;;;;;2.51;53.34;102032.69;4956159;28;20030;-71
2023/02/16 05:29:35;;;;;;;66.97;28.40;;;;;;;2.84;52.63;102033.94;4938430;28;20042;-69
2023/02/16 05:32:01;;;;;;;59.67;28.60;;;;;;;2.98;52.22;102022.94;4963362;28;20034;-77
2023/02/16 05:34:29;;;;;;;56.13;27.10;;;;;;;3.01;51.89;102027.25;4950624;28;20038;-76
2023/02/16 05:36:54;;;;;;;54.03;25.50;;;;;;;2.83;52.43;102032.22;4963656;28;20125;-77
2023/02/16 05:39:20;;;;;;;51.05;26.20;;;;;;;2.46;53.32;102024.91;4957217;28;20610;-73
2023/02/16 05:41:46;;;;;;;56.47;26.10;;;;;;;2.43;53.23;102021.44;4957394;28;20049;-74
2023/02/16 05:44:12;;;;;;;64.07;27.27;;;;;;;2.54;53.50;102027.59;4955972;28;20439;-77
2023/02/16 05:46:38;;;;;;;58.40;29.30;;;;;;;2.54;53.16;102025.03;4947243;28;20041;-74
2023/02/16 05:49:05;;;;;;;60.90;27.77;;;;;;;3.10;51.80;102032.50;4959807;28;20053;-72
2023/02/16 05:51:31;;;;;;;57.70;27.85;;;;;;;2.88;52.29;102033.13;4955938;28;20034;-74
2023/02/16 05:53:57;;;;;;;57.55;27.40;;;;;;;3.06;51.81;102035.91;4942409;28;20589;-74
2023/02/16 05:56:23;;;;;;;55.42;27.65;;;;;;;2.85;52.79;102036.56;4960393;28;20323;-72
2023/02/16 05:58:48;;;;;;;58.50;27.02;;;;;;;3.15;51.43;102028.25;4955321;28;20047;-70
2023/02/16 06:01:17;;;;;;;56.72;27.00;;;;;;;2.62;53.85;102028.53;4954187;28;20022;-73
2023/02/16 06:03:43;;;;;;;56.75;27.10;;;;;;;2.60;53.55;102031.94;4953597;28;20101;-73
2023/02/16 06:06:11;;;;;;;59.47;28.70;;;;;;;2.89;52.88;102019.38;4956642;28;20119;-72
2023/02/16 06:08:37;;;;;;;56.20;27.83;;;;;;;2.42;54.09;102037.75;4959044;28;20668;-72
2023/02/16 06:11:05;;;;;;;59.30;29.08;;;;;;;2.21;54.51;102023.75;4956614;28;20112;-73
2023/02/16 06:13:32;;;;;;;56.97;26.52;;;;;;;2.66;53.59;102019.13;4964049;28;20037;-72
2023/02/16 06:15:58;;;;;;;55.83;27.08;;;;;;;2.91;53.13;102020.25;4953978;28;20552;-73
2023/02/16 06:18:27;;;;;;;61.30;28.77;;;;;;;3.07;52.60;102022.16;4954093;28;20038;-73
2023/02/16 06:20:56;;;;;;;60.70;28.90;;;;;;;2.86;53.41;102021.94;4955350;28;20810;-72
2023/02/16 06:23:21;;;;;;;51.47;28.40;;;;;;;2.74;53.50;102018.38;4960640;28;20449;-77
2023/02/16 06:25:50;;;;;;;58.83;27.95;;;;;;;2.93;53.32;102021.13;4942485;28;20539;-74
2023/02/16 06:28:16;;;;;;;57.03;26.80;;;;;;;2.93;53.17;102018.56;4938273;28;20409;-75
2023/02/16 06:30:42;;;;;;;57.33;29.08;;;;;;;2.62;53.24;102025.94;4926396;28;20035;-75
2023/02/16 06:33:08;;;;;;;64.50;29.25;;;;;;;2.64;53.63;102031.16;4947261;28;20069;-71
2023/02/16 06:35:33;;;;;;;62.45;28.20;;;;;;;3.00;52.89;102028.09;4936056;28;20035;-72
2023/02/16 06:37:59;;;;;;;59.78;27.73;;;;;;;2.57;54.08;102022.47;4938396;28;20099;-81
2023/02/16 06:40:27;;;;;;;60.55;28.08;;;;;;;2.86;53.18;102037.41;4943125;28;20090;-71
2023/02/16 06:42:53;;;;;;;60.95;30.25;;;;;;;2.59;54.33;102037.97;4931296;28;20403;-73
2023/02/16 06:45:21;;;;;;;63.78;29.85;;;;;;;2.74;54.03;102039.03;4936942;28;20051;-71
2023/02/16 06:47:47;;;;;;;62.85;27.95;;;;;;;2.61;54.22;102033.69;4939459;28;20062;-73
2023/02/16 06:50:13;;;;;;;58.35;26.48;;;;;;;3.14;52.62;102028.25;4938663;28;20519;-70
2023/02/16 06:52:39;;;;;;;59.85;29.38;;;;;;;2.66;54.17;102032.03;4938416;28;20047;-73
2023/02/16 06:55:06;;;;;;;59.97;28.80;;;;;;;2.98;53.52;102017.75;4939034;28;20412;-71
2023/02/16 06:57:31;;;;;;;61.03;28.50;;;;;;;3.29;52.48;102012.03;4943738;28;20046;-74
2023/02/16 06:59:57;;;;;;;64.20;27.70;;;;;;;3.52;51.93;102015.69;4937373;28;20043;-72
2023/02/16 07:02:22;;;;;;;58.53;28.60;;;;;;;3.67;51.74;102019.22;4939815;28;20106;-72
2023/02/16 07:04:48;;;;;;;63.08;28.90;;;;;;;3.41;52.25;102022.47;4937680;28;21255;-73
2023/02/16 07:07:14;;;;;;;57.78;27.42;;;;;;;3.46;52.28;102017.34;4938843;28;20027;-70
2023/02/16 07:09:39;;;;;;;60.78;27.08;;;;;;;3.30;52.93;102018.94;4939396;28;20042;-75
2023/02/16 07:12:06;;;;;;;59.90;30.88;;;;;;;2.90;54.29;102023.69;4939803;28;20511;-73
2023/02/16 07:14:34;;;;;;;60.22;29.02;;;;;;;3.38;52.96;102028.50;4939054;28;20067;-72
2023/02/16 07:17:03;;;;;;;63.88;28.25;;;;;;;3.16;53.86;102022.25;4944877;28;20035;-71
2023/02/16 07:19:31;;;;;;;64.78;28.15;;;;;;;3.32;54.03;102012.94;4937111;28;20606;-72
2023/02/16 07:22:00;;;;;;;68.15;31.13;;;;;;;2.97;54.41;101989.31;4945626;28;20043;-69
2023/02/16 07:24:26;;;;;;;59.35;28.00;;;;;;;3.29;53.78;102017.19;4944847;28;20078;-70
2023/02/16 07:26:52;;;;;;;68.85;30.88;;;;;;;3.36;53.99;102037.09;4938243;28;20098;-69
2023/02/16 07:29:18;;;;;;;63.05;30.45;;;;;;;3.43;53.60;102040.59;4935015;28;20062;-71
2023/02/16 07:31:45;;;;;;;79.38;30.30;;;;;;;3.66;52.99;102043.34;4945049;28;20266;-73
2023/02/16 07:34:11;;;;;;;67.22;29.95;;;;;;;3.25;54.65;102052.47;4942561;28;20262;-73
2023/02/16 07:36:36;;;;;;;64.03;29.67;;;;;;;3.44;53.97;102048.34;4924188;28;20043;-71
2023/02/16 07:39:03;;;;;;;63.83;30.83;;;;;;;3.44;54.18;102056.09;4938719;28;20647;-70
2023/02/16 07:41:29;;;;;;;71.47;29.92;;;;;;;3.46;53.82;102045.78;4938950;28;20818;-70
2023/02/16 07:43:54;;;;;;;64.72;30.10;;;;;;;3.58;53.56;102041.59;4952291;28;20767;-70
2023/02/16 07:46:20;;;;;;;73.25;29.63;;;;;;;3.11;55.04;102047.16;4936147;28;20063;-69
2023/02/16 07:48:51;;;;;;;75.95;29.83;;;;;;;3.73;53.54;102046.00;4937596;28;20062;-69
2023/02/16 07:51:25;;;;;;;59.53;30.00;;;;;;;3.37;54.60;102042.25;4935958;28;20881;-70
2023/02/16 07:53:51;;;;;;;61.15;28.65;;;;;;;3.79;53.42;102047.78;4940862;28;20179;-70
2023/02/16 07:56:24;;;;;;;72.55;32.28;;;;;;;3.61;53.61;102045.91;4969171;28;20037;-70
2023/02/16 07:58:54;;;;;;;70.40;31.08;;;;;;;2.82;56.07;102048.56;4962607;28;21404;-70
2023/02/16 08:01:20;;;;;;;68.28;29.98;;;;;;;2.77;56.44;102046.78;4957229;28;20496;-71
2023/02/16 08:03:45;;;;;;;66.03;31.33;;;;;;;3.52;54.68;102035.50;4956389;28;20657;-69
2023/02/16 08:06:11;;;;;;;63.10;29.85;;;;;;;3.61;54.08;102045.91;4957458;28;20148;-69
2023/02/16 08:08:38;;;;;;;63.42;31.05;;;;;;;3.02;55.37;102048.78;4957480;28;20053;-69
2023/02/16 08:11:12;;;;;;;65.55;30.73;;;;;;;3.55;54.22;102051.88;4956631;28;20100;-69
2023/02/16 08:13:37;;;;;;;57.90;28.63;;;;;;;3.39;54.89;102044.88;4945776;28;20065;-69
2023/02/16 08:16:10;;;;;;;55.28;28.65;;;;;;;4.02;53.06;102048.78;4949666;28;20043;-69
2023/02/16 08:18:37;;;;;;;62.72;29.25;;;;;;;3.90;53.12;102059.06;4957763;28;20543;-69
2023/02/16 08:21:14;;;;;;;58.42;29.67;;;;;;;4.07;53.01;102047.94;4960013;28;20038;-69
2023/02/16 08:23:42;;;;;;;64.13;30.50;;;;;;;4.15;52.93;102048.84;4959532;28;20050;-69
2023/02/16 08:26:10;;;;;;;62.80;29.08;;;;;;;4.05;52.97;102047.06;4959730;28;20890;-69
2023/02/16 08:28:36;;;;;;;63.55;29.90;;;;;;;4.12;52.90;102059.16;4958263;28;20568;-69
2023/02/16 08:31:05;;;;;;;73.28;29.95;;;;;;;4.20;52.87;102053.19;4968927;28;20023;-69
2023/02/16 08:33:33;;;;;;;70.05;30.50;;;;;;;4.10;53.26;102056.59;4957471;28;20121;-70
2023/02/16 08:35:58;;;;;;;66.32;29.85;;;;;;;4.04;53.36;102056.56;4957954;28;20039;-69
2023/02/16 08:38:23;;;;;;;51.80;26.45;;;;;;;4.50;52.21;102067.16;4973494;28;20027;-69
2023/02/16 08:40:49;;;;;;;60.35;28.10;;;;;;;4.30;52.75;102063.63;4975197;28;20170;-69
2023/02/16 08:43:15;;;;;;;58.45;29.40;;;;;;;3.96;53.45;102072.03;4961388;28;20038;-69
2023/02/16 08:45:46;;;;;;;60.47;28.00;;;;;;;3.78;53.56;102074.47;4958501;28;20035;-69
2023/02/16 08:48:12;;;;;;;60.03;30.47;;;;;;;4.05;53.27;102071.22;4958231;28;20959;-69
2023/02/16 08:50:45;;;;;;;56.45;27.77;;;;;;;3.98;53.08;102067.75;4960670;28;20043;-70
2023/02/16 08:53:12;;;;;;;58.13;29.10;;;;;;;4.16;52.48;102066.09;4960274;28;20470;-68
2023/02/16 08:55:38;;;;;;;55.88;27.95;;;;;;;4.19;52.85;102076.50;4945551;28;20459;-68
2023/02/16 08:58:04;;;;;;;58.38;29.80;;;;;;;4.43;52.30;102081.81;4957879;28;20042;-69
2023/02/16 09:00:33;;;;;;;54.45;28.08;;;;;;;4.22;52.92;102081.66;4954928;28;20046;-70
2023/02/16 09:02:59;;;;;;;62.63;29.27;;;;;;;4.42;52.25;102072.28;4958347;28;20042;-69
2023/02/16 09:05:26;;;;;;;66.70;30.25;;;;;;;4.52;52.27;102070.63;4961658;28;20046;-68
2023/02/16 09:07:52;;;;;;;61.03;29.42;;;;;;;4.75;51.83;102070.69;4956110;28;20377;-68
2023/02/16 09:10:20;;;;;;;63.08;29.30;;;;;;;4.20;53.39;102073.88;4954990;28;20034;-67
2023/02/16 09:12:48;;;;;;;63.78;30.38;;;;;;;4.57;52.31;102071.50;4961672;28;20524;-69
2023/02/16 09:15:14;;;;;;;56.60;29.02;;;;;;;4.66;52.14;102083.63;4959500;28;20049;-71
2023/02/16 09:17:45;;;;;;;59.80;28.73;;;;;;;4.72;52.29;102075.88;4953622;28;20042;-69
2023/02/16 09:20:11;;;;;;;57.40;29.45;;;;;;;4.81;52.03;102073.31;4956709;28;20237;-69
2023/02/16 09:22:38;;;;;;;61.67;30.15;;;;;;;4.34;53.11;102070.50;4956841;28;20114;-71
2023/02/16 09:25:05;;;;;;;62.80;28.77;;;;;;;4.43;52.64;102081.81;4957358;28;20073;-68
2023/02/16 09:27:32;;;;;;;55.40;29.48;;;;;;;4.33;53.24;102085.19;4938905;28;20027;-68
2023/02/16 09:29:58;;;;;;;62.60;30.83;;;;;;;5.08;51.77;102084.66;4948049;28;20109;-69
2023/02/16 09:32:28;;;;;;;61.85;29.67;;;;;;;4.65;52.78;102084.47;4961145;28;20039;-69
2023/02/16 09:34:54;;;;;;;57.83;27.40;;;;;;;4.45;52.78;102086.09;4955960;28;20136;-68
2023/02/16 09:37:19;;;;;;;61.38;29.63;;;;;;;4.93;51.74;102084.63;4959358;28;20035;-68
2023/02/16 09:39:45;;;;;;;59.95;30.70;;;;;;;4.50;52.96;102087.88;4944348;28;20081;-69
2023/02/16 09:42:44;;;;;;;57.13;28.42;;;;;;;5.00;51.74;102083.75;4963212;28;20038;-69
2023/02/16 09:45:14;;;;;;;55.20;27.00;;;;;;;4.78;52.66;102091.41;4966823;28;20042;-71
2023/02/16 09:47:45;;;;;;;61.75;28.63;;;;;;;4.83;52.00;102081.97;4955053;28;20042;-70
2023/02/16 09:50:18;;;;;;;43.17;22.77;;;;;;;4.64;52.71;102096.56;4956072;28;20047;-68
2023/02/16 09:52:53;;;;;;;65.07;29.48;;;;;;;4.13;53.82;102099.72;4959297;28;20172;-68
2023/02/16 09:55:19;;;;;;;60.65;28.77;;;;;;;4.80;52.44;102104.38;4938753;28;20093;-71
2023/02/16 09:58:06;;;;;;;63.78;31.23;;;;;;;4.57;53.21;102101.72;4955586;28;20583;-70
2023/02/16 10:00:32;;;;;;;56.55;28.70;;;;;;;4.81;52.69;102113.88;4954630;28;20772;-70
2023/02/16 10:03:08;;;;;;;63.25;29.38;;;;;;;4.44;53.90;102105.97;4960229;28;20084;-70
2023/02/16 10:05:49;;;;;;;56.40;28.92;;;;;;;4.55;53.45;102106.00;4953842;28;20052;-70
2023/02/16 10:08:28;;;;;;;62.35;29.73;;;;;;;4.85;53.17;102100.09;4963755;28;20034;-70
2023/02/16 10:14:44;;;;;;;58.22;28.00;;;;;;;5.22;51.94;102093.31;4959230;28;20038;-70
2023/02/16 10:17:33;;;;;;;63.58;28.50;;;;;;;5.50;51.87;102106.31;4958867;28;20476;-70
2023/02/16 10:20:20;;;;;;;59.40;30.10;;;;;;;5.32;51.57;102101.09;4947653;28;20045;-69
2023/02/16 10:23:01;;;;;;;66.78;30.58;;;;;;;5.94;50.43;102100.25;4956905;28;20030;-70
2023/02/16 10:25:43;;;;;;;61.33;28.95;;;;;;;6.20;49.63;102094.19;4970494;28;20148;-70
2023/02/16 10:28:21;;;;;;;60.37;29.43;;;;;;;6.24;49.78;102101.09;4961537;28;20038;-70
2023/02/16 10:30:56;;;;;;;55.78;28.73;;;;;;;5.95;50.20;102109.78;4947145;28;20859;-69
2023/02/16 10:33:37;;;;;;;60.75;29.80;;;;;;;6.06;50.45;102105.44;4958927;28;20070;-68
2023/02/16 10:36:15;;;;;;;66.30;31.00;;;;;;;5.94;51.85;102100.25;4964616;28;20050;-70
2023/02/16 10:38:50;;;;;;;63.03;30.30;;;;;;;5.98;51.13;102109.78;4959679;28;20138;-69
2023/02/16 10:41:33;;;;;;;64.18;28.63;;;;;;;5.77;51.30;102102.00;4959206;28;20061;-69
2023/02/16 10:44:11;;;;;;;59.45;30.98;;;;;;;5.28;52.33;102104.56;4958634;28;20038;-69
2023/02/16 10:46:45;;;;;;;62.78;28.42;;;;;;;5.76;51.83;102098.53;4956130;28;20471;-70
2023/02/16 10:49:12;;;;;;;67.18;29.45;;;;;;;6.17;50.69;102101.94;4977251;28;20054;-70
2023/02/16 10:51:42;;;;;;;63.38;31.45;;;;;;;6.32;50.57;102103.69;4955078;28;20348;-70
2023/02/16 10:54:31;;;;;;;63.65;30.65;;;;;;;5.69;51.87;102101.16;4949268;28;20043;-69
2023/02/16 10:57:06;;;;;;;59.63;30.35;;;;;;;5.44;51.98;102114.97;4938969;28;20508;-69
2023/02/16 10:59:41;;;;;;;56.70;28.88;;;;;;;5.92;51.40;102112.38;4956767;28;21066;-70
2023/02/16 11:02:23;;;;;;;64.00;29.73;;;;;;;6.12;51.13;102107.16;4962672;28;20446;-70
2023/02/16 11:04:51;;;;;;;68.00;31.55;;;;;;;6.30;50.77;102108.88;4940372;28;20050;-70
2023/02/16 11:07:19;;;;;;;68.35;31.80;;;;;;;5.33;53.17;102113.22;4957962;28;20762;-70
2023/02/16 11:09:49;;;;;;;66.10;31.27;;;;;;;5.49;53.21;102093.38;4945551;28;20084;-70
2023/02/16 11:12:28;;;;;;;65.68;30.30;;;;;;;5.26;53.43;102101.97;4957256;28;20114;-70
2023/02/16 11:15:12;;;;;;;61.35;30.17;;;;;;;5.77;52.19;102099.41;4958452;28;20100;-70
2023/02/16 11:18:03;;;;;;;61.08;26.67;;;;;;;6.03;51.61;102097.66;4958873;28;20037;-70
2023/02/16 11:20:41;;;;;;;68.80;32.90;;;;;;;5.64;53.03;102106.34;4958992;28;20026;-69
2023/02/16 11:23:16;;;;;;;72.40;30.42;;;;;;;5.92;52.55;102104.59;4963299;28;20045;-70
2023/02/16 11:25:53;;;;;;;60.60;31.10;;;;;;;5.58;52.64;102114.13;4965253;28;20038;-70
2023/02/16 11:28:34;;;;;;;76.20;32.92;;;;;;;5.64;52.79;102112.38;4963076;28;20039;-69
2023/02/16 11:31:12;;;;;;;61.53;31.20;;;;;;;5.97;52.49;102108.06;4962863;28;20061;-69
2023/02/16 11:33:39;;;;;;;65.22;29.90;;;;;;;6.02;52.23;102095.94;4957749;28;20043;-69
2023/02/16 11:36:34;;;;;;;62.15;31.80;;;;;;;5.98;53.09;102103.72;4993762;28;20209;-68
2023/02/16 11:39:20;;;;;;;68.53;31.17;;;;;;;6.75;50.85;102109.59;4961341;28;20101;-69
2023/02/16 11:41:49;;;;;;;66.20;29.90;;;;;;;6.02;52.36;102111.50;4961958;28;20101;-69
2023/02/16 11:44:30;;;;;;;68.65;31.00;;;;;;;6.21;52.18;102101.09;4950170;28;20062;-68
2023/02/16 11:46:57;;;;;;;59.55;29.25;;;;;;;5.60;53.45;102089.91;4960794;28;20551;-68
2023/02/16 11:49:34;;;;;;;56.90;29.10;;;;;;;5.71;53.35;102089.03;4961649;28;20035;-69
2023/02/16 11:52:16;;;;;;;56.88;29.98;;;;;;;6.06;52.70;102087.28;4960731;28;20034;-68
2023/02/16 11:55:10;;;;;;;72.10;32.60;;;;;;;6.27;52.17;102095.88;4957607;28;20043;-69
2023/02/16 11:57:36;;;;;;;65.55;30.42;;;;;;;6.23;52.31;102099.34;4960127;28;20053;-69
2023/02/16 12:00:14;;;;;;;68.40;32.78;;;;;;;6.18;52.71;102091.56;4958979;28;20042;-69
2023/02/16 12:02:47;;;;;;;70.97;34.00;;;;;;;6.37;52.26;102095.00;4955463;28;20042;-68
2023/02/16 12:05:34;;;;;;;69.60;31.10;;;;;;;5.81;53.49;102080.38;4957271;28;20077;-68
2023/02/16 12:08:21;;;;;;;68.10;32.00;;;;;;;5.68;54.51;102066.53;4966635;28;20448;-68
2023/02/16 12:11:05;;;;;;;65.43;30.90;;;;;;;5.53;54.58;102064.84;4961625;28;20046;-67
2023/02/16 12:13:46;;;;;;;65.20;30.40;;;;;;;5.84;53.94;102049.25;4956074;28;20767;-67
2023/02/16 12:16:33;;;;;;;70.95;32.08;;;;;;;6.16;53.11;102035.34;4954197;28;20042;-68